createdAt,value
2023-08-20T00:02:33.590Z,43.77
2023-08-20T00:07:38.091Z,43.97
2023-08-20T00:12:41.981Z,44.40
2023-08-20T00:17:48.185Z,45.42
2023-08-20T00:22:52.736Z,45.04
2023-08-20T00:27:55.695Z,45.60
2023-08-20T00:33:01.210Z,45.88
2023-08-20T00:38:05.264Z,46.26
2023-08-20T00:43:09.024Z,46.26
2023-08-20T00:48:14.786Z,45.87
2023-08-20T00:53:19.146Z,44.85
2023-08-20T00:58:22.890Z,45.05
2023-08-20T01:03:28.983Z,45.25
2023-08-20T01:08:40.951Z,44.90
2023-08-20T01:13:44.990Z,45.94
2023-08-20T01:18:50.422Z,46.64
2023-08-20T01:24:18.795Z,46.92
2023-08-20T01:29:24.305Z,46.90
2023-08-20T01:34:28.037Z,47.28
2023-08-20T01:39:31.767Z,47.90
2023-08-20T01:44:37.147Z,48.40
2023-08-20T01:49:40.869Z,49.15
2023-08-20T01:54:44.562Z,49.43
2023-08-20T01:59:50.934Z,50.33
2023-08-20T02:04:54.744Z,50.69
2023-08-20T02:09:58.524Z,50.93
2023-08-20T02:15:04.731Z,50.90
2023-08-20T02:20:09.511Z,52.33
2023-08-20T02:25:13.394Z,52.35
2023-08-20T02:30:19.223Z,53.41
2023-08-20T02:35:22.985Z,53.14
2023-08-20T02:40:26.964Z,53.83
2023-08-20T02:45:32.654Z,54.15
2023-08-20T02:50:36.570Z,53.89
2023-08-20T02:55:40.569Z,54.17
2023-08-20T03:00:45.936Z,54.18
2023-08-20T03:05:50.456Z,54.77
2023-08-20T03:10:54.160Z,55.42
2023-08-20T03:15:59.517Z,55.55
2023-08-20T03:21:03.249Z,55.33
2023-08-20T03:26:06.988Z,55.58
2023-08-20T03:31:12.439Z,56.23
2023-08-20T03:36:16.253Z,55.98
2023-08-20T03:41:20.096Z,56.16
2023-08-20T03:46:25.470Z,56.30
2023-08-20T03:51:29.248Z,56.92
2023-08-20T03:56:32.962Z,57.43
2023-08-20T04:01:38.525Z,60.21
2023-08-20T04:06:42.319Z,59.06
2023-08-20T04:11:46.056Z,60.07
2023-08-20T04:16:52.411Z,60.90
2023-08-20T04:21:56.127Z,62.08
2023-08-20T04:26:59.867Z,61.47
2023-08-20T04:32:05.439Z,61.06
2023-08-20T04:37:09.182Z,60.91
2023-08-20T04:42:12.921Z,61.93
2023-08-20T04:47:18.574Z,61.96
2023-08-20T04:52:22.322Z,61.39
2023-08-20T04:57:26.182Z,61.18
2023-08-20T05:02:31.610Z,63.73
2023-08-20T05:07:35.414Z,63.87
2023-08-20T05:12:39.291Z,64.67
2023-08-20T05:17:44.911Z,64.68
2023-08-20T05:22:48.691Z,63.13
2023-08-20T05:27:52.450Z,63.29
2023-08-20T05:32:57.904Z,63.70
2023-08-20T05:38:00.888Z,65.05
2023-08-20T05:43:04.737Z,63.81
2023-08-20T05:48:11.085Z,63.98
2023-08-20T05:53:14.830Z,64.04
2023-08-20T05:58:18.639Z,63.55
2023-08-20T06:03:24.068Z,63.76
2023-08-20T06:08:27.026Z,63.95
2023-08-20T06:13:30.766Z,64.33
2023-08-20T06:18:36.269Z,66.04
2023-08-20T06:23:44.579Z,66.15
2023-08-20T06:28:48.720Z,65.13
2023-08-20T06:33:55.110Z,65.92
2023-08-20T06:38:58.888Z,65.92
2023-08-20T06:44:02.673Z,66.05
2023-08-20T06:49:08.214Z,65.75
2023-08-20T06:54:11.149Z,65.62
2023-08-20T06:59:14.855Z,65.41
2023-08-20T07:04:20.207Z,65.52
2023-08-20T07:09:23.917Z,66.07
2023-08-20T07:14:27.638Z,65.22
2023-08-20T07:19:32.989Z,65.10
2023-08-20T07:25:01.331Z,65.86
2023-08-20T07:30:05.386Z,65.62
2023-08-20T07:35:12.152Z,66.07
2023-08-20T07:40:16.620Z,66.27
2023-08-20T07:45:20.678Z,65.41
2023-08-20T07:50:26.939Z,66.00
2023-08-20T07:55:30.665Z,65.47
2023-08-20T08:00:34.408Z,65.16
2023-08-20T08:05:39.791Z,65.04
2023-08-20T08:10:43.548Z,65.28
2023-08-20T08:15:48.315Z,66.01
2023-08-20T08:20:53.684Z,66.55
2023-08-20T08:25:57.437Z,67.04
2023-08-20T08:31:01.262Z,66.93
2023-08-20T08:36:08.740Z,67.29
2023-08-20T08:41:14.399Z,67.11
2023-08-20T08:46:18.468Z,67.13
2023-08-20T08:51:24.013Z,67.67
2023-08-20T08:56:26.924Z,67.75
2023-08-20T09:01:32.645Z,67.23
2023-08-20T09:06:49.636Z,67.74
2023-08-20T09:11:53.358Z,67.10
2023-08-20T09:16:57.760Z,67.29
2023-08-20T09:22:03.447Z,68.10
2023-08-20T09:27:07.568Z,67.96
2023-08-20T09:32:16.402Z,68.43
2023-08-20T09:37:24.122Z,68.44
2023-08-20T09:42:29.640Z,67.63
2023-08-20T09:47:34.026Z,70.17
2023-08-20T09:52:42.596Z,69.60
2023-08-20T09:57:47.890Z,68.93
2023-08-20T10:02:53.293Z,69.08
2023-08-20T10:08:00.774Z,69.52
2023-08-20T10:13:04.725Z,69.31
2023-08-20T10:18:10.719Z,69.71
2023-08-20T10:23:16.142Z,70.11
2023-08-20T10:28:23.374Z,69.86
2023-08-20T10:33:27.644Z,69.02
2023-08-20T10:38:38.367Z,69.58
2023-08-20T10:43:47.739Z,68.96
2023-08-20T10:48:53.241Z,70.70
2023-08-20T10:54:10.118Z,71.41
2023-08-20T10:59:16.961Z,71.00
2023-08-20T11:04:22.398Z,70.93
2023-08-20T11:09:28.550Z,71.23
2023-08-20T11:14:32.269Z,70.83
2023-08-20T11:19:36.106Z,70.12
2023-08-20T11:24:44.966Z,71.64
2023-08-20T11:29:50.438Z,70.79
2023-08-20T11:34:54.799Z,70.66
2023-08-20T11:40:00.180Z,71.36
2023-08-20T11:45:04.019Z,71.61
2023-08-20T11:50:08.812Z,71.35
2023-08-20T11:55:14.212Z,71.86
2023-08-20T12:00:27.140Z,72.64
2023-08-20T12:05:31.344Z,71.18
2023-08-20T12:10:36.920Z,71.95
2023-08-20T12:15:39.850Z,72.01
2023-08-20T12:20:43.604Z,72.13
2023-08-20T12:25:53.037Z,72.54
2023-08-20T12:30:56.839Z,72.03
2023-08-20T12:36:00.681Z,71.90
2023-08-20T12:41:06.115Z,72.24
2023-08-20T12:46:09.967Z,72.20
2023-08-20T12:51:13.844Z,72.05
2023-08-20T12:56:19.191Z,72.43
2023-08-20T13:01:22.977Z,71.80
2023-08-20T13:06:27.519Z,71.64
2023-08-20T13:11:34.183Z,72.43
2023-08-20T13:16:38.727Z,71.62
2023-08-20T13:21:43.260Z,71.57
2023-08-20T13:26:48.650Z,71.89
2023-08-20T13:31:52.362Z,72.36
2023-08-20T13:36:56.142Z,71.37
2023-08-20T13:42:01.534Z,72.18
2023-08-20T13:47:05.296Z,72.08
2023-08-20T13:52:09.078Z,71.82
2023-08-20T13:57:15.506Z,72.64
2023-08-20T14:02:19.198Z,72.42
2023-08-20T14:07:22.893Z,72.71
2023-08-20T14:12:28.285Z,72.67
2023-08-20T14:17:32.046Z,72.50
2023-08-20T14:22:36.211Z,72.66
2023-08-20T14:27:41.856Z,73.42
2023-08-20T14:32:45.858Z,73.51
2023-08-20T14:37:49.793Z,73.52
2023-08-20T14:42:55.183Z,73.26
2023-08-20T14:47:58.876Z,72.86
2023-08-20T14:53:02.775Z,72.82
2023-08-20T14:58:08.279Z,73.78
2023-08-20T15:03:12.103Z,73.54
2023-08-20T15:08:15.916Z,73.87
2023-08-20T15:13:21.349Z,73.27
2023-08-20T15:18:25.486Z,73.38
2023-08-20T15:23:30.049Z,73.35
2023-08-20T15:28:35.401Z,73.66
2023-08-20T15:33:39.106Z,73.22
2023-08-20T15:38:42.782Z,72.58
2023-08-20T15:43:48.158Z,72.34
2023-08-20T15:48:51.904Z,71.97
2023-08-20T15:53:55.663Z,71.74
2023-08-20T15:59:01.968Z,71.35
2023-08-20T16:04:07.133Z,71.14
2023-08-20T16:09:10.863Z,71.08
2023-08-20T16:14:16.233Z,70.27
2023-08-20T16:19:20.013Z,69.43
2023-08-20T16:24:23.755Z,68.96
2023-08-20T16:29:29.166Z,68.49
2023-08-20T16:34:32.264Z,68.97
2023-08-20T16:39:36.272Z,68.05
2023-08-20T16:44:41.654Z,68.22
2023-08-20T16:49:44.657Z,66.58
2023-08-20T16:54:49.095Z,66.52
2023-08-20T16:59:54.520Z,62.48
2023-08-20T17:04:58.362Z,59.07
2023-08-20T17:10:02.098Z,57.89
2023-08-20T17:15:09.109Z,54.03
2023-08-20T17:20:13.935Z,53.14
2023-08-20T17:25:17.891Z,52.90
2023-08-20T17:30:23.320Z,51.96
2023-08-20T17:35:27.092Z,50.18
2023-08-20T17:40:30.851Z,48.53
2023-08-20T17:45:38.583Z,48.00
2023-08-20T17:50:42.330Z,48.16
2023-08-20T17:55:46.041Z,47.46
2023-08-20T18:00:51.582Z,47.08
2023-08-20T18:05:56.000Z,45.43
2023-08-20T18:11:00.380Z,45.14
2023-08-20T18:16:06.044Z,44.24
2023-08-20T18:21:09.796Z,43.37
2023-08-20T18:26:13.512Z,43.45
2023-08-20T18:31:18.941Z,41.29
2023-08-20T18:36:25.219Z,41.88
2023-08-20T18:41:30.548Z,41.71
2023-08-20T18:46:36.981Z,42.30
2023-08-20T18:51:41.436Z,42.94
2023-08-20T18:56:45.133Z,43.33
2023-08-20T19:01:51.660Z,43.84
2023-08-20T19:06:55.399Z,44.91
2023-08-20T19:11:59.198Z,44.64
2023-08-20T19:17:04.654Z,43.71
2023-08-20T19:22:08.392Z,44.64
2023-08-20T19:27:12.139Z,43.38
2023-08-20T19:32:17.491Z,41.57
2023-08-20T19:37:21.256Z,41.92
2023-08-20T19:42:25.088Z,41.48
2023-08-20T19:47:30.655Z,42.08
2023-08-20T19:52:34.445Z,41.17
2023-08-20T19:57:38.286Z,41.64
2023-08-20T20:02:44.299Z,42.75
2023-08-20T20:07:48.418Z,43.34
2023-08-20T20:12:52.140Z,43.19
2023-08-20T20:17:57.592Z,41.65
2023-08-20T20:23:01.374Z,40.83
2023-08-20T20:28:05.462Z,40.83
2023-08-20T20:33:10.926Z,40.23
2023-08-20T20:38:16.916Z,40.39
2023-08-20T20:43:21.527Z,40.11
2023-08-20T20:48:26.978Z,39.70
2023-08-20T20:53:31.451Z,39.13
2023-08-20T20:58:37.324Z,39.32
2023-08-20T21:03:45.768Z,38.72
2023-08-20T21:08:49.545Z,38.59
2023-08-20T21:13:53.294Z,38.92
2023-08-20T21:18:58.763Z,38.20
2023-08-20T21:24:02.471Z,39.16
2023-08-20T21:29:06.170Z,39.14
2023-08-20T21:34:11.563Z,38.37
2023-08-20T21:39:15.339Z,37.94
2023-08-20T21:44:19.057Z,37.59
2023-08-20T21:49:24.533Z,37.40
2023-08-20T21:54:28.272Z,34.31
2023-08-20T21:59:32.008Z,34.44
2023-08-20T22:04:37.429Z,30.32
2023-08-20T22:09:41.171Z,31.48
2023-08-20T22:14:44.929Z,34.21
2023-08-20T22:19:49.507Z,34.22
2023-08-20T22:24:52.437Z,33.98
2023-08-20T22:29:56.193Z,34.92
2023-08-20T22:35:01.600Z,34.86
2023-08-20T22:40:06.196Z,35.56
2023-08-20T22:45:10.365Z,35.64
2023-08-20T22:50:15.784Z,35.60
2023-08-20T22:55:19.624Z,35.11
2023-08-20T23:00:23.121Z,34.85
2023-08-20T23:05:28.683Z,34.33
2023-08-20T23:10:32.429Z,35.07
2023-08-20T23:15:36.155Z,34.80
2023-08-20T23:20:41.561Z,34.40
2023-08-20T23:25:47.933Z,34.53
2023-08-20T23:30:51.857Z,33.98
2023-08-20T23:35:56.464Z,34.27
2023-08-20T23:40:59.384Z,33.70
2023-08-20T23:46:03.155Z,34.24
2023-08-20T23:51:08.586Z,34.63
2023-08-20T23:56:12.346Z,34.22
